Raven Run, Pennsylvania
Current Conditions -  °F | °C
As of 1:15 PM on Monday 26 Jan 2015 (Local Time) from KHZL Reporting Station
Overcast Overcast  
Wind Chill: 16°   Ceiling: 1800
Heat Index: 23°   Visibility: 10mi
Dew Point: 18°   Wind: 6mph
Humidity: 80%   Direction: 100°E
Pressure: 29.78"   Gusts: NA
Location:  40.8162°N, 76.2537°W
Report Text: KHZL 261815Z AUTO 10005KT 10SM OVC018 M05/M08 A2978 RMK AO2
Loading
Personal Weather Stations






























Interactive Weather Map New forecast layout! Learn more

10-Day Weather Forecast

Advertisements
Track Severe Weather on mobile